Terminal Aerodrome Forecast
Issued by NWS

Home | Current Version | Previous Version | Text Only | Print | Product List | Glossary On
Versions: 1 2 3 4 5 6 7 8 9 10 11 12 13
000
FTUS46 KSGX 180500
TAFTRM
TAF
KTRM 180520Z 1806/1906 VRB05KT 6SM BR SCT070 SCT120
     FM180900 VRB05KT 5SM BR SCT100
      TEMPO 1811/1815 2SM BR
     FM181600 VRB05KT P6SM SCT100=

USA.gov is the U.S. government's official web portal to all federal, state and local government web resources and services.